createdAt,value
2019-04-23T00:01:49.272Z,11.70
2019-04-23T00:04:20.131Z,11.70
2019-04-23T00:07:09.262Z,11.60
2019-04-23T00:09:46.692Z,11.60
2019-04-23T00:12:43.798Z,11.60
2019-04-23T00:15:37.793Z,11.50
2019-04-23T00:18:42.270Z,11.50
2019-04-23T00:21:28.380Z,11.40
2019-04-23T00:24:01.490Z,11.50
2019-04-23T00:26:30.635Z,11.40
2019-04-23T00:29:06.693Z,11.40
2019-04-23T00:34:01.118Z,11.40
2019-04-23T00:36:32.064Z,11.40
2019-04-23T00:38:54.050Z,11.40
2019-04-23T00:44:04.527Z,11.30
2019-04-23T00:49:07.437Z,11.30
2019-04-23T00:51:36.825Z,11.40
2019-04-23T00:54:05.937Z,11.30
2019-04-23T00:59:05.300Z,11.30
2019-04-23T01:01:42.983Z,11.40
2019-04-23T01:04:15.767Z,11.30
2019-04-23T01:06:39.083Z,11.30
2019-04-23T01:09:12.078Z,11.30
2019-04-23T01:11:39.156Z,11.30
2019-04-23T01:14:11.734Z,11.30
2019-04-23T01:16:37.538Z,11.30
2019-04-23T01:19:24.657Z,11.20
2019-04-23T01:21:34.771Z,11.20
2019-04-23T01:24:24.973Z,11.20
2019-04-23T01:30:04.782Z,11.10
2019-04-23T01:32:35.042Z,11.10
2019-04-23T01:35:15.174Z,11.20
2019-04-23T01:37:36.868Z,11.10
2019-04-23T01:40:04.086Z,11.10
2019-04-23T01:42:40.719Z,11.10
2019-04-23T01:45:15.362Z,11.10
2019-04-23T01:47:40.652Z,11.10
2019-04-23T01:50:13.947Z,11.10
2019-04-23T01:52:50.583Z,11.10
2019-04-23T01:55:15.464Z,11.10
2019-04-23T01:57:46.599Z,11.10
2019-04-23T02:00:16.744Z,11.10
2019-04-23T02:02:49.974Z,11.10
2019-04-23T02:07:50.918Z,11.00
2019-04-23T02:10:20.500Z,11.00
2019-04-23T02:12:49.926Z,10.90
2019-04-23T02:15:16.920Z,10.90
2019-04-23T02:17:53.231Z,10.90
2019-04-23T02:20:22.024Z,10.90
2019-04-23T02:23:13.691Z,10.90
2019-04-23T02:25:50.501Z,10.90
2019-04-23T02:28:12.316Z,10.90
2019-04-23T02:31:15.369Z,10.90
2019-04-23T02:33:28.688Z,10.90
2019-04-23T02:40:59.355Z,10.80
2019-04-23T02:45:59.028Z,10.80
2019-04-23T02:50:42.601Z,10.80
2019-04-23T02:53:47.247Z,10.80
2019-04-23T03:01:19.512Z,10.70
2019-04-23T03:05:57.247Z,10.70
2019-04-23T03:13:37.611Z,10.70
2019-04-23T03:19:02.605Z,10.70
2019-04-23T03:21:33.406Z,10.70
2019-04-23T03:24:17.158Z,10.70
2019-04-23T03:29:10.736Z,10.70
2019-04-23T03:35:14.685Z,10.70
2019-04-23T03:39:05.421Z,10.70
2019-04-23T03:41:43.931Z,10.60
2019-04-23T03:44:06.622Z,10.60
2019-04-23T03:46:39.931Z,10.60
2019-04-23T03:49:05.497Z,10.60
2019-04-23T03:51:42.411Z,10.60
2019-04-23T03:54:26.189Z,10.60
2019-04-23T03:56:54.368Z,10.70
2019-04-23T03:59:20.418Z,10.60
2019-04-23T04:01:45.297Z,10.60
2019-04-23T04:04:24.772Z,10.60
2019-04-23T04:06:48.246Z,10.70
2019-04-23T04:11:52.210Z,10.70
2019-04-23T04:14:36.371Z,10.70
2019-04-23T04:19:32.434Z,10.70
2019-04-23T04:21:58.498Z,10.70
2019-04-23T04:39:49.739Z,10.80
2019-04-23T04:42:12.241Z,10.80
2019-04-23T04:44:43.371Z,10.80
2019-04-23T04:47:32.267Z,10.80
2019-04-23T04:49:54.705Z,10.80
2019-04-23T04:54:24.235Z,10.90
2019-04-23T04:59:50.779Z,11.00
2019-04-23T05:04:48.319Z,11.10
2019-04-23T05:07:24.255Z,11.00
2019-04-23T05:12:18.949Z,11.10
2019-04-23T05:14:52.834Z,11.10
2019-04-23T05:17:42.378Z,11.10
2019-04-23T05:20:04.946Z,11.10
2019-04-23T05:22:42.711Z,11.10
2019-04-23T05:24:57.221Z,11.20
2019-04-23T05:27:37.548Z,11.20
2019-04-23T05:30:10.839Z,11.20
2019-04-23T05:32:39.447Z,11.20
2019-04-23T05:35:09.976Z,11.30
2019-04-23T05:37:50.444Z,11.40
2019-04-23T05:40:24.132Z,11.40
2019-04-23T05:45:29.781Z,11.50
2019-04-23T05:47:47.468Z,11.60
2019-04-23T05:50:26.045Z,11.60
2019-04-23T05:55:13.266Z,11.70
2019-04-23T05:57:44.632Z,11.70
2019-04-23T06:00:24.776Z,11.80
2019-04-23T06:02:57.184Z,11.80
2019-04-23T06:05:41.214Z,11.90
2019-04-23T06:10:19.756Z,12.00
2019-04-23T06:12:55.808Z,12.10
2019-04-23T06:15:29.098Z,12.20
2019-04-23T06:17:56.138Z,12.20
2019-04-23T06:20:32.875Z,12.30
2019-04-23T06:23:01.052Z,12.40
2019-04-23T06:25:42.216Z,12.40
2019-04-23T06:28:03.509Z,12.50
2019-04-23T06:30:35.227Z,12.60
2019-04-23T06:33:04.258Z,12.60
2019-04-23T06:35:31.995Z,12.70
2019-04-23T06:43:15.035Z,13.00
2019-04-23T06:45:40.432Z,13.10
2019-04-23T06:48:15.542Z,13.20
2019-04-23T06:50:54.530Z,13.20
2019-04-23T06:53:05.191Z,13.40
2019-04-23T06:55:49.193Z,13.50
2019-04-23T06:58:23.967Z,13.60
2019-04-23T07:00:48.857Z,13.60
2019-04-23T07:03:27.743Z,13.70
2019-04-23T07:06:19.084Z,13.80
2019-04-23T07:09:03.219Z,14.00
2019-04-23T07:11:33.818Z,14.10
2019-04-23T07:13:55.818Z,14.20
2019-04-23T07:19:39.387Z,14.20
2019-04-23T07:22:14.884Z,14.30
2019-04-23T07:24:40.548Z,14.30
2019-04-23T07:27:01.306Z,14.40
2019-04-23T07:29:47.105Z,14.40
2019-04-23T07:32:05.297Z,14.60
2019-04-23T07:34:46.937Z,14.80
2019-04-23T07:37:22.820Z,14.90
2019-04-23T07:40:11.016Z,15.10
2019-04-23T07:45:24.344Z,15.10
2019-04-23T07:50:44.175Z,15.40
2019-04-23T07:53:22.866Z,15.50
2019-04-23T07:58:21.255Z,15.60
2019-04-23T08:00:47.249Z,15.80
2019-04-23T08:05:44.011Z,16.00
2019-04-23T08:08:12.196Z,15.90
2019-04-23T08:11:25.905Z,15.90
2019-04-23T08:13:41.232Z,16.00
2019-04-23T08:16:15.303Z,16.10
2019-04-23T08:18:39.820Z,16.00
2019-04-23T08:21:10.646Z,16.10
2019-04-23T08:23:55.495Z,16.30
2019-04-23T08:26:59.644Z,16.40
2019-04-23T08:29:27.710Z,16.50
2019-04-23T08:32:10.659Z,16.50
2019-04-23T08:39:42.150Z,17.10
2019-04-23T08:42:28.736Z,17.20
2019-04-23T08:45:05.372Z,17.10
2019-04-23T08:47:22.891Z,17.20
2019-04-23T08:49:51.845Z,17.30
2019-04-23T08:52:25.207Z,17.40
2019-04-23T08:57:29.277Z,17.40
2019-04-23T08:59:55.968Z,17.50
2019-04-23T09:05:02.491Z,17.70
2019-04-23T09:07:29.772Z,17.70
2019-04-23T09:10:04.487Z,17.70
2019-04-23T09:12:35.317Z,17.80
2019-04-23T09:15:09.979Z,17.80
2019-04-23T09:17:42.612Z,17.80
2019-04-23T09:22:34.716Z,17.80
2019-04-23T09:25:18.527Z,17.90
2019-04-23T09:27:41.881Z,18.00
2019-04-23T09:30:07.986Z,18.10
2019-04-23T09:32:58.870Z,18.30
2019-04-23T09:35:27.531Z,18.50
2019-04-23T09:38:12.400Z,18.70
2019-04-23T09:41:09.908Z,18.70
2019-04-23T09:43:55.578Z,18.90
2019-04-23T09:46:36.441Z,19.10
2019-04-23T09:51:47.210Z,19.20
2019-04-23T09:54:27.046Z,19.20
2019-04-23T09:56:42.860Z,19.10
2019-04-23T09:59:15.718Z,19.30
2019-04-23T10:01:43.360Z,19.30
2019-04-23T10:03:59.008Z,19.40
2019-04-23T10:06:22.705Z,19.50
2019-04-23T10:08:53.581Z,19.50
2019-04-23T10:11:19.965Z,19.50
2019-04-23T10:13:50.341Z,19.50
2019-04-23T10:16:23.361Z,19.70
2019-04-23T10:18:51.181Z,19.90
2019-04-23T10:21:21.462Z,20.00
2019-04-23T10:23:51.665Z,19.90
2019-04-23T10:26:21.835Z,19.90
2019-04-23T10:28:58.265Z,19.90
2019-04-23T10:31:27.408Z,20.10
2019-04-23T10:33:58.020Z,20.00
2019-04-23T10:36:29.540Z,20.00
2019-04-23T10:39:03.524Z,20.20
2019-04-23T10:41:30.597Z,20.40
2019-04-23T10:44:07.031Z,20.30
2019-04-23T10:47:46.757Z,20.40
2019-04-23T10:50:39.975Z,20.60
2019-04-23T10:53:21.453Z,20.90
2019-04-23T10:55:58.855Z,21.10
2019-04-23T11:00:53.144Z,21.20
2019-04-23T11:03:43.659Z,21.10
2019-04-23T11:05:59.027Z,21.00
2019-04-23T11:08:23.991Z,20.90
2019-04-23T11:11:03.585Z,20.80
2019-04-23T11:16:41.965Z,20.80
2019-04-23T11:18:52.167Z,20.90
2019-04-23T11:21:20.779Z,21.10
2019-04-23T11:23:50.117Z,21.10
2019-04-23T11:26:32.750Z,21.20
2019-04-23T11:28:59.763Z,21.50
2019-04-23T11:31:43.098Z,21.70
2019-04-23T11:34:19.971Z,21.80
2019-04-23T11:39:30.913Z,21.70
2019-04-23T11:47:42.410Z,21.70
2019-04-23T11:52:32.839Z,22.00
2019-04-23T11:54:53.647Z,21.80
2019-04-23T11:59:59.501Z,21.90
2019-04-23T12:02:59.190Z,22.00
2019-04-23T12:06:12.387Z,22.30
2019-04-23T12:09:17.419Z,22.50
2019-04-23T12:20:02.885Z,23.20
2019-04-23T12:22:54.452Z,23.40
2019-04-23T12:25:51.593Z,23.30
2019-04-23T12:31:47.681Z,23.30
2019-04-23T12:34:35.737Z,23.50
2019-04-23T12:37:04.224Z,23.60
2019-04-23T12:39:42.489Z,23.50
2019-04-23T12:42:34.463Z,23.50
2019-04-23T12:44:46.186Z,23.40
2019-04-23T12:47:25.394Z,23.50
2019-04-23T12:50:37.731Z,23.90
2019-04-23T12:53:03.612Z,23.90
2019-04-23T13:00:59.052Z,24.00
2019-04-23T13:03:33.047Z,24.10
2019-04-23T13:06:04.107Z,24.00
2019-04-23T13:08:46.128Z,24.00
2019-04-23T13:11:17.616Z,23.70
2019-04-23T13:13:54.499Z,23.90
2019-04-23T13:16:59.004Z,23.70
2019-04-23T13:19:06.202Z,23.70
2019-04-23T13:21:51.306Z,23.60
2019-04-23T13:24:26.022Z,23.40
2019-04-23T13:27:01.213Z,23.70
2019-04-23T13:29:56.859Z,23.80
2019-04-23T13:32:31.078Z,24.00
2019-04-23T13:37:57.176Z,24.40
2019-04-23T13:40:24.387Z,24.30
2019-04-23T13:43:01.436Z,24.20
2019-04-23T13:45:59.671Z,24.10
2019-04-23T13:48:14.795Z,24.10
2019-04-23T13:51:35.848Z,23.90
2019-04-23T13:54:06.114Z,23.90
2019-04-23T13:57:44.015Z,24.10
2019-04-23T14:00:28.656Z,24.30
2019-04-23T14:05:45.363Z,24.50
2019-04-23T14:08:22.906Z,24.50
2019-04-23T14:11:13.435Z,24.50
2019-04-23T14:14:38.476Z,24.40
2019-04-23T14:17:05.017Z,24.30
2019-04-23T14:19:28.343Z,24.40
2019-04-23T14:22:45.065Z,24.50
2019-04-23T14:25:07.889Z,24.60
2019-04-23T14:28:13.912Z,24.50
2019-04-23T14:30:46.411Z,24.80
2019-04-23T14:33:37.931Z,25.00
2019-04-23T14:36:07.696Z,25.00
2019-04-23T14:38:41.136Z,25.10
2019-04-23T14:48:51.722Z,24.50
2019-04-23T14:51:32.148Z,24.80
2019-04-23T14:53:48.344Z,25.20
2019-04-23T15:01:27.462Z,26.10
2019-04-23T15:03:49.369Z,26.20
2019-04-23T15:11:47.907Z,26.20
2019-04-23T15:13:55.198Z,26.00
2019-04-23T15:19:33.902Z,25.20
2019-04-23T15:29:08.529Z,25.40
2019-04-23T15:31:59.209Z,25.60
2019-04-23T15:42:04.921Z,25.70
2019-04-23T15:44:41.923Z,25.70
2019-04-23T15:47:09.003Z,25.70
2019-04-23T15:49:30.462Z,25.30
2019-04-23T15:54:37.161Z,25.00
2019-04-23T15:56:59.543Z,25.00
2019-04-23T16:01:41.951Z,25.00
2019-04-23T16:04:08.764Z,25.00
2019-04-23T16:06:38.950Z,24.80
2019-04-23T16:09:28.384Z,24.40
2019-04-23T16:11:58.914Z,24.50
2019-04-23T16:14:47.873Z,24.50
2019-04-23T16:17:18.757Z,24.50
2019-04-23T16:20:06.051Z,24.60
2019-04-23T16:22:24.757Z,24.50
2019-04-23T16:25:03.602Z,24.40
2019-04-23T16:27:21.581Z,24.30
2019-04-23T16:33:10.184Z,24.20
2019-04-23T16:35:32.964Z,24.30
2019-04-23T16:38:14.139Z,24.10
2019-04-23T16:43:07.071Z,23.80
2019-04-23T16:45:45.728Z,23.50
2019-04-23T16:48:07.711Z,23.10
2019-04-23T16:50:41.732Z,23.00
2019-04-23T16:53:11.208Z,23.00
2019-04-23T16:58:17.143Z,22.80
2019-04-23T17:00:38.301Z,22.70
2019-04-23T17:03:11.255Z,22.60
2019-04-23T17:05:46.570Z,22.60
2019-04-23T17:08:36.183Z,22.60
2019-04-23T17:10:42.853Z,22.50
2019-04-23T17:15:55.134Z,22.50
2019-04-23T17:18:17.362Z,22.40
2019-04-23T17:20:46.728Z,22.20
2019-04-23T17:23:28.962Z,22.00
2019-04-23T17:25:49.068Z,21.90
2019-04-23T17:28:18.354Z,21.50
2019-04-23T17:31:05.215Z,21.30
2019-04-23T17:33:27.579Z,21.20
2019-04-23T17:36:21.057Z,21.10
2019-04-23T17:38:49.614Z,21.00
2019-04-23T17:44:18.873Z,20.70
2019-04-23T17:46:42.727Z,20.50
2019-04-23T17:49:15.316Z,20.50
2019-04-23T17:51:44.791Z,20.50
2019-04-23T18:01:57.200Z,20.00
2019-04-23T18:04:20.659Z,19.90
2019-04-23T18:07:05.385Z,19.90
2019-04-23T18:09:25.586Z,19.70
2019-04-23T18:11:54.298Z,19.60
2019-04-23T18:14:18.085Z,19.50
2019-04-23T18:24:59.386Z,19.20
2019-04-23T18:27:27.519Z,19.10
2019-04-23T18:30:11.003Z,19.10
2019-04-23T18:33:38.249Z,19.10
2019-04-23T18:38:05.454Z,18.70
2019-04-23T18:40:55.199Z,18.70
2019-04-23T18:43:13.708Z,18.60
2019-04-23T18:45:46.808Z,18.50
2019-04-23T18:56:06.579Z,18.20
2019-04-23T18:58:48.592Z,18.20
2019-04-23T19:01:05.131Z,18.20
2019-04-23T19:06:41.214Z,18.00
2019-04-23T19:10:12.126Z,17.90
2019-04-23T19:15:06.136Z,17.80
2019-04-23T19:17:46.566Z,17.70
2019-04-23T19:20:01.083Z,17.60
2019-04-23T19:22:43.213Z,17.60
2019-04-23T19:25:05.804Z,17.50
2019-04-23T19:30:39.738Z,17.40
2019-04-23T19:33:21.959Z,17.40
2019-04-23T19:40:51.750Z,17.30
2019-04-23T19:43:19.523Z,17.30
2019-04-23T19:45:55.691Z,17.20
2019-04-23T19:50:57.326Z,17.20
2019-04-23T19:53:29.691Z,17.20
2019-04-23T19:56:05.154Z,17.10
2019-04-23T19:58:31.964Z,17.10
2019-04-23T20:03:48.691Z,17.10
2019-04-23T20:06:08.153Z,17.10
2019-04-23T20:10:57.414Z,17.00
2019-04-23T20:13:37.712Z,17.00
2019-04-23T20:18:41.953Z,16.90
2019-04-23T20:20:59.359Z,16.90
2019-04-23T20:23:58.679Z,16.90
2019-04-23T20:32:29.098Z,16.80
2019-04-23T20:39:08.163Z,16.60
2019-04-23T20:42:07.898Z,16.60
2019-04-23T20:44:37.365Z,16.60
2019-04-23T20:47:01.914Z,16.50
2019-04-23T20:49:28.275Z,16.40
2019-04-23T20:52:00.134Z,16.50
2019-04-23T20:54:42.120Z,16.50
2019-04-23T20:57:43.046Z,16.50
2019-04-23T21:00:24.074Z,16.40
2019-04-23T21:03:41.506Z,16.40
2019-04-23T21:05:33.342Z,16.40
2019-04-23T21:08:38.839Z,16.30
2019-04-23T21:11:01.357Z,16.30
2019-04-23T21:14:30.087Z,16.30
2019-04-23T21:16:50.810Z,16.20
2019-04-23T21:20:03.439Z,16.20
2019-04-23T21:22:49.029Z,16.20
2019-04-23T21:25:44.481Z,16.20
2019-04-23T21:28:54.039Z,16.20
2019-04-23T21:31:32.798Z,16.10
2019-04-23T21:34:19.461Z,16.10
2019-04-23T21:37:10.941Z,16.10
2019-04-23T21:40:04.633Z,16.10
2019-04-23T21:51:24.451Z,16.10
2019-04-23T21:56:48.618Z,16.10
2019-04-23T21:59:50.577Z,16.00
2019-04-23T22:02:38.459Z,16.00
2019-04-23T22:05:47.911Z,16.10
2019-04-23T22:08:27.143Z,16.10
2019-04-23T22:11:37.658Z,16.00
2019-04-23T22:21:47.459Z,16.00
2019-04-23T22:24:32.147Z,16.00
2019-04-23T22:27:32.823Z,16.00
2019-04-23T22:30:45.920Z,15.90
2019-04-23T22:33:07.129Z,15.90
2019-04-23T22:35:24.289Z,15.90
2019-04-23T22:40:49.744Z,15.90
2019-04-23T22:43:35.902Z,15.90
2019-04-23T22:45:52.671Z,15.90
2019-04-23T22:48:20.625Z,15.90
2019-04-23T22:50:57.558Z,15.80
2019-04-23T22:53:13.808Z,15.80
2019-04-23T22:59:01.993Z,15.80
2019-04-23T23:01:26.157Z,15.90
2019-04-23T23:04:20.293Z,15.80
2019-04-23T23:07:02.835Z,15.90
2019-04-23T23:09:25.324Z,15.90
2019-04-23T23:11:57.860Z,15.80
2019-04-23T23:14:27.623Z,15.80
2019-04-23T23:16:57.214Z,15.80
2019-04-23T23:19:42.678Z,15.80
2019-04-23T23:24:47.864Z,15.90
2019-04-23T23:27:29.951Z,15.90
2019-04-23T23:30:00.034Z,15.90
2019-04-23T23:37:19.135Z,15.80
2019-04-23T23:39:57.625Z,15.80
2019-04-23T23:42:15.789Z,15.80
2019-04-23T23:45:01.955Z,15.90
2019-04-23T23:47:38.074Z,15.80
2019-04-23T23:50:01.305Z,15.80
2019-04-23T23:52:34.968Z,15.80
2019-04-23T23:55:01.755Z,15.80
2019-04-23T23:57:26.492Z,15.80
